sensor_id;sensor_type;location;lat;lon;timestamp;temperature;humidity
56332;DHT22;42237;53.340;6.812;2022-10-16T00:02:02;12.50;99.90
56332;DHT22;42237;53.340;6.812;2022-10-16T00:04:27;12.50;99.90
56332;DHT22;42237;53.340;6.812;2022-10-16T00:06:53;12.50;99.90
56332;DHT22;42237;53.340;6.812;2022-10-16T00:09:19;12.50;99.90
56332;DHT22;42237;53.340;6.812;2022-10-16T00:11:44;12.50;99.90
56332;DHT22;42237;53.340;6.812;2022-10-16T00:14:13;12.50;99.90
56332;DHT22;42237;53.340;6.812;2022-10-16T00:16:39;12.50;99.90
56332;DHT22;42237;53.340;6.812;2022-10-16T00:19:05;12.50;99.90
56332;DHT22;42237;53.340;6.812;2022-10-16T00:21:32;12.50;99.90
56332;DHT22;42237;53.340;6.812;2022-10-16T00:24:00;12.50;99.90
56332;DHT22;42237;53.340;6.812;2022-10-16T00:26:28;12.50;99.90
56332;DHT22;42237;53.340;6.812;2022-10-16T00:28:54;12.50;99.90
56332;DHT22;42237;53.340;6.812;2022-10-16T00:31:21;12.40;99.90
56332;DHT22;42237;53.340;6.812;2022-10-16T00:33:47;12.40;99.90
56332;DHT22;42237;53.340;6.812;2022-10-16T00:36:15;12.40;99.90
56332;DHT22;42237;53.340;6.812;2022-10-16T00:38:41;12.40;99.90
56332;DHT22;42237;53.340;6.812;2022-10-16T00:41:11;12.40;99.90
56332;DHT22;42237;53.340;6.812;2022-10-16T00:49:14;12.40;99.90
56332;DHT22;42237;53.340;6.812;2022-10-16T00:51:43;12.40;99.90
56332;DHT22;42237;53.340;6.812;2022-10-16T00:54:19;12.30;99.90
56332;DHT22;42237;53.340;6.812;2022-10-16T00:56:47;12.40;99.90
56332;DHT22;42237;53.340;6.812;2022-10-16T00:59:26;12.30;99.90
56332;DHT22;42237;53.340;6.812;2022-10-16T01:01:53;12.30;99.90
56332;DHT22;42237;53.340;6.812;2022-10-16T01:04:19;12.30;99.90
56332;DHT22;42237;53.340;6.812;2022-10-16T01:07:09;12.30;99.90
56332;DHT22;42237;53.340;6.812;2022-10-16T01:15:25;12.30;99.90
56332;DHT22;42237;53.340;6.812;2022-10-16T01:17:53;12.20;99.90
56332;DHT22;42237;53.340;6.812;2022-10-16T01:20:29;12.20;99.90
56332;DHT22;42237;53.340;6.812;2022-10-16T01:23:07;12.10;99.90
56332;DHT22;42237;53.340;6.812;2022-10-16T01:28:29;12.20;99.90
56332;DHT22;42237;53.340;6.812;2022-10-16T01:30:59;12.20;99.90
56332;DHT22;42237;53.340;6.812;2022-10-16T01:33:40;12.20;99.90
56332;DHT22;42237;53.340;6.812;2022-10-16T01:36:14;12.10;99.90
56332;DHT22;42237;53.340;6.812;2022-10-16T01:38:43;12.10;99.90
56332;DHT22;42237;53.340;6.812;2022-10-16T01:41:31;12.10;99.90
56332;DHT22;42237;53.340;6.812;2022-10-16T01:44:08;12.20;99.90
56332;DHT22;42237;53.340;6.812;2022-10-16T01:46:37;12.20;99.90
56332;DHT22;42237;53.340;6.812;2022-10-16T01:49:05;12.20;99.90
56332;DHT22;42237;53.340;6.812;2022-10-16T01:51:32;12.20;99.90
56332;DHT22;42237;53.340;6.812;2022-10-16T01:54:00;12.10;99.90
56332;DHT22;42237;53.340;6.812;2022-10-16T01:56:27;12.30;99.90
56332;DHT22;42237;53.340;6.812;2022-10-16T01:59:08;12.20;99.90
56332;DHT22;42237;53.340;6.812;2022-10-16T02:01:37;12.20;99.90
56332;DHT22;42237;53.340;6.812;2022-10-16T02:06:52;12.20;99.90
56332;DHT22;42237;53.340;6.812;2022-10-16T02:09:18;12.20;99.90
56332;DHT22;42237;53.340;6.812;2022-10-16T02:11:44;12.20;99.90
56332;DHT22;42237;53.340;6.812;2022-10-16T02:14:10;12.20;99.90
56332;DHT22;42237;53.340;6.812;2022-10-16T02:16:41;12.20;99.90
56332;DHT22;42237;53.340;6.812;2022-10-16T02:19:07;12.30;99.90
56332;DHT22;42237;53.340;6.812;2022-10-16T02:27:05;12.30;99.90
56332;DHT22;42237;53.340;6.812;2022-10-16T02:29:36;12.30;99.90
56332;DHT22;42237;53.340;6.812;2022-10-16T02:32:05;12.30;99.90
56332;DHT22;42237;53.340;6.812;2022-10-16T02:34:33;12.30;99.90
56332;DHT22;42237;53.340;6.812;2022-10-16T02:37:00;12.30;99.90
56332;DHT22;42237;53.340;6.812;2022-10-16T02:39:27;12.40;99.90
56332;DHT22;42237;53.340;6.812;2022-10-16T02:41:54;12.40;99.90
56332;DHT22;42237;53.340;6.812;2022-10-16T02:44:19;12.40;99.90
56332;DHT22;42237;53.340;6.812;2022-10-16T02:46:45;12.40;99.90
56332;DHT22;42237;53.340;6.812;2022-10-16T02:49:11;12.40;99.90
56332;DHT22;42237;53.340;6.812;2022-10-16T02:51:36;12.40;99.90
56332;DHT22;42237;53.340;6.812;2022-10-16T02:54:03;12.40;99.90
56332;DHT22;42237;53.340;6.812;2022-10-16T02:56:29;12.40;99.90
56332;DHT22;42237;53.340;6.812;2022-10-16T02:58:55;12.50;99.90
56332;DHT22;42237;53.340;6.812;2022-10-16T03:01:21;12.50;99.90
56332;DHT22;42237;53.340;6.812;2022-10-16T03:03:47;12.50;99.90
56332;DHT22;42237;53.340;6.812;2022-10-16T03:06:12;12.50;99.90
56332;DHT22;42237;53.340;6.812;2022-10-16T03:08:38;12.50;99.90
56332;DHT22;42237;53.340;6.812;2022-10-16T03:11:04;12.50;99.90
56332;DHT22;42237;53.340;6.812;2022-10-16T03:13:29;12.50;99.90
56332;DHT22;42237;53.340;6.812;2022-10-16T03:15:55;12.50;99.90
56332;DHT22;42237;53.340;6.812;2022-10-16T03:18:21;12.50;99.90
56332;DHT22;42237;53.340;6.812;2022-10-16T03:20:46;12.50;99.90
56332;DHT22;42237;53.340;6.812;2022-10-16T03:23:13;12.40;99.90
56332;DHT22;42237;53.340;6.812;2022-10-16T03:25:39;12.40;99.90
56332;DHT22;42237;53.340;6.812;2022-10-16T03:28:05;12.40;99.90
56332;DHT22;42237;53.340;6.812;2022-10-16T03:30:31;12.40;99.90
56332;DHT22;42237;53.340;6.812;2022-10-16T03:32:56;12.40;99.90
56332;DHT22;42237;53.340;6.812;2022-10-16T03:35:23;12.40;99.90
56332;DHT22;42237;53.340;6.812;2022-10-16T03:37:49;12.40;99.90
56332;DHT22;42237;53.340;6.812;2022-10-16T03:40:15;12.40;99.90
56332;DHT22;42237;53.340;6.812;2022-10-16T03:42:44;12.30;99.90
56332;DHT22;42237;53.340;6.812;2022-10-16T03:45:11;12.30;99.90
56332;DHT22;42237;53.340;6.812;2022-10-16T03:47:37;12.30;99.90
56332;DHT22;42237;53.340;6.812;2022-10-16T03:50:03;12.30;99.90
56332;DHT22;42237;53.340;6.812;2022-10-16T03:52:29;12.30;99.90
56332;DHT22;42237;53.340;6.812;2022-10-16T03:54:55;12.30;99.90
56332;DHT22;42237;53.340;6.812;2022-10-16T03:57:21;12.30;99.90
56332;DHT22;42237;53.340;6.812;2022-10-16T03:59:46;12.30;99.90
56332;DHT22;42237;53.340;6.812;2022-10-16T04:02:13;12.30;99.90
56332;DHT22;42237;53.340;6.812;2022-10-16T04:04:38;12.30;99.90
56332;DHT22;42237;53.340;6.812;2022-10-16T04:07:04;12.30;99.90
56332;DHT22;42237;53.340;6.812;2022-10-16T04:09:30;12.30;99.90
56332;DHT22;42237;53.340;6.812;2022-10-16T04:11:56;12.30;99.90
56332;DHT22;42237;53.340;6.812;2022-10-16T04:14:22;12.30;99.90
56332;DHT22;42237;53.340;6.812;2022-10-16T04:16:47;12.30;99.90
56332;DHT22;42237;53.340;6.812;2022-10-16T04:19:13;12.30;99.90
56332;DHT22;42237;53.340;6.812;2022-10-16T04:21:39;12.30;99.90
56332;DHT22;42237;53.340;6.812;2022-10-16T04:24:04;12.30;99.90
56332;DHT22;42237;53.340;6.812;2022-10-16T04:26:30;12.20;99.90
56332;DHT22;42237;53.340;6.812;2022-10-16T04:28:56;12.20;99.90
56332;DHT22;42237;53.340;6.812;2022-10-16T04:31:22;12.20;99.90
56332;DHT22;42237;53.340;6.812;2022-10-16T04:33:47;12.20;99.90
56332;DHT22;42237;53.340;6.812;2022-10-16T04:36:13;12.20;99.90
56332;DHT22;42237;53.340;6.812;2022-10-16T04:38:39;12.20;99.90
56332;DHT22;42237;53.340;6.812;2022-10-16T04:41:05;12.20;99.90
56332;DHT22;42237;53.340;6.812;2022-10-16T04:43:31;12.20;99.90
56332;DHT22;42237;53.340;6.812;2022-10-16T04:45:57;12.20;99.90
56332;DHT22;42237;53.340;6.812;2022-10-16T04:48:23;12.20;99.90
56332;DHT22;42237;53.340;6.812;2022-10-16T04:50:49;12.20;99.90
56332;DHT22;42237;53.340;6.812;2022-10-16T04:53:14;12.20;99.90
56332;DHT22;42237;53.340;6.812;2022-10-16T04:55:41;12.20;99.90
56332;DHT22;42237;53.340;6.812;2022-10-16T04:58:06;12.20;99.90
56332;DHT22;42237;53.340;6.812;2022-10-16T05:00:33;12.30;99.90
56332;DHT22;42237;53.340;6.812;2022-10-16T05:02:59;12.30;99.90
56332;DHT22;42237;53.340;6.812;2022-10-16T05:05:26;12.30;99.90
56332;DHT22;42237;53.340;6.812;2022-10-16T05:07:52;12.30;99.90
56332;DHT22;42237;53.340;6.812;2022-10-16T05:10:18;12.30;99.90
56332;DHT22;42237;53.340;6.812;2022-10-16T05:12:44;12.40;99.90
56332;DHT22;42237;53.340;6.812;2022-10-16T05:15:09;12.30;99.90
56332;DHT22;42237;53.340;6.812;2022-10-16T05:17:35;12.40;99.90
56332;DHT22;42237;53.340;6.812;2022-10-16T05:20:01;12.40;99.90
56332;DHT22;42237;53.340;6.812;2022-10-16T05:22:27;12.50;99.90
56332;DHT22;42237;53.340;6.812;2022-10-16T05:24:52;12.50;99.90
56332;DHT22;42237;53.340;6.812;2022-10-16T05:27:18;12.50;99.90
56332;DHT22;42237;53.340;6.812;2022-10-16T05:29:46;12.50;99.90
56332;DHT22;42237;53.340;6.812;2022-10-16T05:32:13;12.50;99.90
56332;DHT22;42237;53.340;6.812;2022-10-16T05:34:41;12.50;99.90
56332;DHT22;42237;53.340;6.812;2022-10-16T05:37:07;12.50;99.90
56332;DHT22;42237;53.340;6.812;2022-10-16T05:39:33;12.60;99.90
56332;DHT22;42237;53.340;6.812;2022-10-16T05:41:58;12.60;99.90
56332;DHT22;42237;53.340;6.812;2022-10-16T05:44:24;12.60;99.90
56332;DHT22;42237;53.340;6.812;2022-10-16T05:46:50;12.60;99.90
56332;DHT22;42237;53.340;6.812;2022-10-16T05:49:16;12.60;99.90
56332;DHT22;42237;53.340;6.812;2022-10-16T05:51:41;12.60;99.90
56332;DHT22;42237;53.340;6.812;2022-10-16T05:54:07;12.60;99.90
56332;DHT22;42237;53.340;6.812;2022-10-16T05:56:33;12.60;99.90
56332;DHT22;42237;53.340;6.812;2022-10-16T05:58:59;12.60;99.90
56332;DHT22;42237;53.340;6.812;2022-10-16T06:01:25;12.60;99.90
56332;DHT22;42237;53.340;6.812;2022-10-16T06:03:51;12.60;99.90
56332;DHT22;42237;53.340;6.812;2022-10-16T06:06:22;12.60;99.90
56332;DHT22;42237;53.340;6.812;2022-10-16T06:08:49;12.60;99.90
56332;DHT22;42237;53.340;6.812;2022-10-16T06:11:23;12.60;99.90
56332;DHT22;42237;53.340;6.812;2022-10-16T06:13:52;12.60;99.90
56332;DHT22;42237;53.340;6.812;2022-10-16T06:16:18;12.60;99.90
56332;DHT22;42237;53.340;6.812;2022-10-16T06:18:44;12.60;99.90
56332;DHT22;42237;53.340;6.812;2022-10-16T06:21:18;12.60;99.90
56332;DHT22;42237;53.340;6.812;2022-10-16T06:23:45;12.60;99.90
56332;DHT22;42237;53.340;6.812;2022-10-16T06:26:19;12.60;99.90
56332;DHT22;42237;53.340;6.812;2022-10-16T06:28:45;12.60;99.90
56332;DHT22;42237;53.340;6.812;2022-10-16T06:31:11;12.60;99.90
56332;DHT22;42237;53.340;6.812;2022-10-16T06:33:38;12.60;99.90
56332;DHT22;42237;53.340;6.812;2022-10-16T06:38:31;12.60;99.90
56332;DHT22;42237;53.340;6.812;2022-10-16T06:40:57;12.60;99.90
56332;DHT22;42237;53.340;6.812;2022-10-16T06:43:23;12.70;99.90
56332;DHT22;42237;53.340;6.812;2022-10-16T06:45:56;12.70;99.90
56332;DHT22;42237;53.340;6.812;2022-10-16T06:48:23;12.70;99.90
56332;DHT22;42237;53.340;6.812;2022-10-16T06:53:31;12.80;99.90
56332;DHT22;42237;53.340;6.812;2022-10-16T06:55:57;12.70;99.90
56332;DHT22;42237;53.340;6.812;2022-10-16T06:58:23;12.80;99.90
56332;DHT22;42237;53.340;6.812;2022-10-16T07:00:55;12.80;99.90
56332;DHT22;42237;53.340;6.812;2022-10-16T07:03:21;12.80;99.90
56332;DHT22;42237;53.340;6.812;2022-10-16T07:05:47;12.80;99.90
56332;DHT22;42237;53.340;6.812;2022-10-16T07:08:13;12.80;99.90
56332;DHT22;42237;53.340;6.812;2022-10-16T07:10:38;12.80;99.90
56332;DHT22;42237;53.340;6.812;2022-10-16T07:13:04;12.90;99.90
56332;DHT22;42237;53.340;6.812;2022-10-16T07:15:30;12.90;99.90
56332;DHT22;42237;53.340;6.812;2022-10-16T07:17:55;12.90;99.90
56332;DHT22;42237;53.340;6.812;2022-10-16T07:20:21;12.90;99.90
56332;DHT22;42237;53.340;6.812;2022-10-16T07:22:46;13.00;99.90
56332;DHT22;42237;53.340;6.812;2022-10-16T07:25:15;13.00;99.90
56332;DHT22;42237;53.340;6.812;2022-10-16T07:27:41;13.00;99.90
56332;DHT22;42237;53.340;6.812;2022-10-16T07:30:07;12.90;99.90
56332;DHT22;42237;53.340;6.812;2022-10-16T07:32:33;13.10;99.90
56332;DHT22;42237;53.340;6.812;2022-10-16T07:34:58;13.10;99.90
56332;DHT22;42237;53.340;6.812;2022-10-16T07:37:24;13.10;99.90
56332;DHT22;42237;53.340;6.812;2022-10-16T07:39:50;13.10;99.90
56332;DHT22;42237;53.340;6.812;2022-10-16T07:42:15;13.20;99.90
56332;DHT22;42237;53.340;6.812;2022-10-16T07:44:41;13.20;99.90
56332;DHT22;42237;53.340;6.812;2022-10-16T07:47:07;13.20;99.90
56332;DHT22;42237;53.340;6.812;2022-10-16T07:49:33;13.30;99.90
56332;DHT22;42237;53.340;6.812;2022-10-16T07:51:58;13.30;99.90
56332;DHT22;42237;53.340;6.812;2022-10-16T07:54:24;13.30;99.90
56332;DHT22;42237;53.340;6.812;2022-10-16T07:56:50;13.30;99.90
56332;DHT22;42237;53.340;6.812;2022-10-16T07:59:15;13.40;99.90
56332;DHT22;42237;53.340;6.812;2022-10-16T08:01:41;13.40;99.90
56332;DHT22;42237;53.340;6.812;2022-10-16T08:04:10;13.40;99.90
56332;DHT22;42237;53.340;6.812;2022-10-16T08:06:39;13.50;99.90
56332;DHT22;42237;53.340;6.812;2022-10-16T08:09:09;13.50;99.90
56332;DHT22;42237;53.340;6.812;2022-10-16T08:11:34;13.40;99.90
56332;DHT22;42237;53.340;6.812;2022-10-16T08:14:00;13.40;99.90
56332;DHT22;42237;53.340;6.812;2022-10-16T08:16:26;13.40;99.90
56332;DHT22;42237;53.340;6.812;2022-10-16T08:18:52;13.50;99.90
56332;DHT22;42237;53.340;6.812;2022-10-16T08:21:20;13.50;99.90
56332;DHT22;42237;53.340;6.812;2022-10-16T08:23:46;13.50;99.90
56332;DHT22;42237;53.340;6.812;2022-10-16T08:26:12;13.50;99.90
56332;DHT22;42237;53.340;6.812;2022-10-16T08:28:38;13.50;99.90
56332;DHT22;42237;53.340;6.812;2022-10-16T08:31:09;13.60;99.90
56332;DHT22;42237;53.340;6.812;2022-10-16T08:33:36;13.70;99.90
56332;DHT22;42237;53.340;6.812;2022-10-16T08:36:03;13.80;99.90
56332;DHT22;42237;53.340;6.812;2022-10-16T08:38:29;13.90;99.90
56332;DHT22;42237;53.340;6.812;2022-10-16T08:41:46;13.90;99.90
56332;DHT22;42237;53.340;6.812;2022-10-16T08:43:54;13.90;99.90
56332;DHT22;42237;53.340;6.812;2022-10-16T08:49:26;13.90;99.90
56332;DHT22;42237;53.340;6.812;2022-10-16T08:52:04;13.90;99.90
56332;DHT22;42237;53.340;6.812;2022-10-16T08:54:39;14.00;99.90
56332;DHT22;42237;53.340;6.812;2022-10-16T08:57:30;13.50;99.90
56332;DHT22;42237;53.340;6.812;2022-10-16T09:00:11;14.10;99.90
56332;DHT22;42237;53.340;6.812;2022-10-16T09:11:31;14.20;99.90
56332;DHT22;42237;53.340;6.812;2022-10-16T09:14:39;14.20;99.90
56332;DHT22;42237;53.340;6.812;2022-10-16T09:20:31;14.40;99.90
56332;DHT22;42237;53.340;6.812;2022-10-16T09:26:46;14.50;99.90
56332;DHT22;42237;53.340;6.812;2022-10-16T09:29:17;14.50;99.90
56332;DHT22;42237;53.340;6.812;2022-10-16T09:31:45;14.50;99.90
56332;DHT22;42237;53.340;6.812;2022-10-16T09:34:35;14.60;99.90
56332;DHT22;42237;53.340;6.812;2022-10-16T09:37:12;14.70;99.90
56332;DHT22;42237;53.340;6.812;2022-10-16T09:39:56;14.80;99.90
56332;DHT22;42237;53.340;6.812;2022-10-16T09:42:30;14.90;99.90
56332;DHT22;42237;53.340;6.812;2022-10-16T09:45:21;14.90;99.90
56332;DHT22;42237;53.340;6.812;2022-10-16T09:47:48;14.90;99.90
56332;DHT22;42237;53.340;6.812;2022-10-16T09:50:24;14.90;99.90
56332;DHT22;42237;53.340;6.812;2022-10-16T09:53:11;15.00;99.90
56332;DHT22;42237;53.340;6.812;2022-10-16T09:56:01;15.10;99.90
56332;DHT22;42237;53.340;6.812;2022-10-16T09:58:27;15.20;99.90
56332;DHT22;42237;53.340;6.812;2022-10-16T10:00:54;15.20;99.90
56332;DHT22;42237;53.340;6.812;2022-10-16T10:03:41;15.20;99.90
56332;DHT22;42237;53.340;6.812;2022-10-16T10:06:28;15.20;99.90
56332;DHT22;42237;53.340;6.812;2022-10-16T10:12:23;15.20;99.90
56332;DHT22;42237;53.340;6.812;2022-10-16T10:14:58;15.20;99.90
56332;DHT22;42237;53.340;6.812;2022-10-16T10:17:29;15.20;99.90
56332;DHT22;42237;53.340;6.812;2022-10-16T10:20:00;15.30;99.90
56332;DHT22;42237;53.340;6.812;2022-10-16T10:26:18;15.30;99.90
56332;DHT22;42237;53.340;6.812;2022-10-16T10:32:02;15.40;99.90
56332;DHT22;42237;53.340;6.812;2022-10-16T10:37:54;15.50;99.90
56332;DHT22;42237;53.340;6.812;2022-10-16T10:40:36;15.50;99.90
56332;DHT22;42237;53.340;6.812;2022-10-16T10:46:05;14.40;99.90
56332;DHT22;42237;53.340;6.812;2022-10-16T10:48:54;15.60;99.90
56332;DHT22;42237;53.340;6.812;2022-10-16T11:05:42;15.90;99.90
56332;DHT22;42237;53.340;6.812;2022-10-16T11:08:22;15.90;99.90
56332;DHT22;42237;53.340;6.812;2022-10-16T11:11:16;16.00;99.90
56332;DHT22;42237;53.340;6.812;2022-10-16T11:14:47;15.90;99.90
56332;DHT22;42237;53.340;6.812;2022-10-16T11:21:50;15.90;99.90
56332;DHT22;42237;53.340;6.812;2022-10-16T11:25:01;15.80;99.90
56332;DHT22;42237;53.340;6.812;2022-10-16T11:30:27;15.80;99.90
56332;DHT22;42237;53.340;6.812;2022-10-16T11:48:51;16.20;99.90
56332;DHT22;42237;53.340;6.812;2022-10-16T11:56:25;16.30;99.90
56332;DHT22;42237;53.340;6.812;2022-10-16T12:01:47;16.10;99.90
56332;DHT22;42237;53.340;6.812;2022-10-16T12:04:31;16.20;99.90
56332;DHT22;42237;53.340;6.812;2022-10-16T12:07:07;16.20;99.90
56332;DHT22;42237;53.340;6.812;2022-10-16T12:09:37;16.20;99.90
56332;DHT22;42237;53.340;6.812;2022-10-16T12:12:04;16.10;99.90
56332;DHT22;42237;53.340;6.812;2022-10-16T12:14:36;16.00;99.90
56332;DHT22;42237;53.340;6.812;2022-10-16T12:17:22;16.00;99.90
56332;DHT22;42237;53.340;6.812;2022-10-16T12:20:12;16.00;99.90
56332;DHT22;42237;53.340;6.812;2022-10-16T12:22:56;16.00;99.90
56332;DHT22;42237;53.340;6.812;2022-10-16T12:32:36;16.10;99.90
56332;DHT22;42237;53.340;6.812;2022-10-16T12:35:30;16.10;99.90
56332;DHT22;42237;53.340;6.812;2022-10-16T12:38:51;16.20;99.90
56332;DHT22;42237;53.340;6.812;2022-10-16T12:41:41;16.30;99.90
56332;DHT22;42237;53.340;6.812;2022-10-16T12:44:25;16.30;99.90
56332;DHT22;42237;53.340;6.812;2022-10-16T12:47:23;16.30;99.90
56332;DHT22;42237;53.340;6.812;2022-10-16T12:53:26;16.20;99.90
56332;DHT22;42237;53.340;6.812;2022-10-16T12:56:15;16.20;99.90
56332;DHT22;42237;53.340;6.812;2022-10-16T13:02:55;16.10;99.90
56332;DHT22;42237;53.340;6.812;2022-10-16T13:13:56;15.80;99.90
56332;DHT22;42237;53.340;6.812;2022-10-16T13:16:32;15.60;99.90
56332;DHT22;42237;53.340;6.812;2022-10-16T13:22:21;15.60;99.90
56332;DHT22;42237;53.340;6.812;2022-10-16T13:31:38;15.50;99.90
56332;DHT22;42237;53.340;6.812;2022-10-16T13:34:05;15.40;99.90
56332;DHT22;42237;53.340;6.812;2022-10-16T13:36:46;15.50;99.90
56332;DHT22;42237;53.340;6.812;2022-10-16T13:39:29;15.50;99.90
56332;DHT22;42237;53.340;6.812;2022-10-16T13:45:25;15.50;99.90
56332;DHT22;42237;53.340;6.812;2022-10-16T13:48:04;15.50;99.90
56332;DHT22;42237;53.340;6.812;2022-10-16T13:50:31;15.50;99.90
56332;DHT22;42237;53.340;6.812;2022-10-16T13:53:07;15.50;99.90
56332;DHT22;42237;53.340;6.812;2022-10-16T13:55:37;15.60;99.90
56332;DHT22;42237;53.340;6.812;2022-10-16T13:58:16;15.60;99.90
56332;DHT22;42237;53.340;6.812;2022-10-16T14:04:38;15.70;99.90
56332;DHT22;42237;53.340;6.812;2022-10-16T14:07:04;15.60;99.90
56332;DHT22;42237;53.340;6.812;2022-10-16T14:16:36;15.60;99.90
56332;DHT22;42237;53.340;6.812;2022-10-16T14:19:05;15.60;99.90
56332;DHT22;42237;53.340;6.812;2022-10-16T14:21:33;15.60;99.90
56332;DHT22;42237;53.340;6.812;2022-10-16T14:24:11;15.60;99.90
56332;DHT22;42237;53.340;6.812;2022-10-16T14:26:42;15.40;99.90
56332;DHT22;42237;53.340;6.812;2022-10-16T14:29:14;15.50;99.90
56332;DHT22;42237;53.340;6.812;2022-10-16T14:31:40;15.50;99.90
56332;DHT22;42237;53.340;6.812;2022-10-16T14:34:24;15.50;99.90
56332;DHT22;42237;53.340;6.812;2022-10-16T14:36:50;15.50;99.90
56332;DHT22;42237;53.340;6.812;2022-10-16T14:39:21;15.50;99.90
56332;DHT22;42237;53.340;6.812;2022-10-16T14:41:49;15.40;99.90
56332;DHT22;42237;53.340;6.812;2022-10-16T14:44:37;15.40;99.90
56332;DHT22;42237;53.340;6.812;2022-10-16T15:41:45;14.70;99.90
56332;DHT22;42237;53.340;6.812;2022-10-16T16:11:07;14.10;99.90
56332;DHT22;42237;53.340;6.812;2022-10-16T16:13:32;14.00;99.90
56332;DHT22;42237;53.340;6.812;2022-10-16T16:15:59;14.00;99.90
56332;DHT22;42237;53.340;6.812;2022-10-16T16:18:25;14.00;99.90
56332;DHT22;42237;53.340;6.812;2022-10-16T16:20:51;13.90;99.90
56332;DHT22;42237;53.340;6.812;2022-10-16T16:27:33;13.80;99.90
56332;DHT22;42237;53.340;6.812;2022-10-16T16:30:01;13.70;99.90
56332;DHT22;42237;53.340;6.812;2022-10-16T16:32:29;13.60;99.90
56332;DHT22;42237;53.340;6.812;2022-10-16T16:52:50;13.10;99.90
56332;DHT22;42237;53.340;6.812;2022-10-16T17:28:59;12.40;99.90
56332;DHT22;42237;53.340;6.812;2022-10-16T17:35:35;12.30;99.90
56332;DHT22;42237;53.340;6.812;2022-10-16T17:52:30;12.20;99.90
56332;DHT22;42237;53.340;6.812;2022-10-16T17:54:55;12.10;99.90
56332;DHT22;42237;53.340;6.812;2022-10-16T17:57:22;12.20;99.90
56332;DHT22;42237;53.340;6.812;2022-10-16T17:59:48;12.10;99.90
56332;DHT22;42237;53.340;6.812;2022-10-16T18:02:14;12.10;99.90
56332;DHT22;42237;53.340;6.812;2022-10-16T18:04:39;12.10;99.90
56332;DHT22;42237;53.340;6.812;2022-10-16T18:07:05;12.10;99.90
56332;DHT22;42237;53.340;6.812;2022-10-16T18:09:31;12.10;99.90
56332;DHT22;42237;53.340;6.812;2022-10-16T18:12:12;12.10;99.90
56332;DHT22;42237;53.340;6.812;2022-10-16T18:14:49;11.90;99.90
56332;DHT22;42237;53.340;6.812;2022-10-16T18:17:23;11.90;99.90
56332;DHT22;42237;53.340;6.812;2022-10-16T18:19:51;11.90;99.90
56332;DHT22;42237;53.340;6.812;2022-10-16T18:22:24;12.00;99.90
56332;DHT22;42237;53.340;6.812;2022-10-16T18:24:54;11.80;99.90
56332;DHT22;42237;53.340;6.812;2022-10-16T18:27:23;11.80;99.90
56332;DHT22;42237;53.340;6.812;2022-10-16T18:29:51;11.70;99.90
56332;DHT22;42237;53.340;6.812;2022-10-16T18:32:23;11.70;99.90
56332;DHT22;42237;53.340;6.812;2022-10-16T18:34:52;11.50;99.90
56332;DHT22;42237;53.340;6.812;2022-10-16T18:37:40;11.60;99.90
56332;DHT22;42237;53.340;6.812;2022-10-16T18:40:20;11.60;99.90
56332;DHT22;42237;53.340;6.812;2022-10-16T18:42:46;11.60;99.90
56332;DHT22;42237;53.340;6.812;2022-10-16T18:45:14;11.60;99.90
56332;DHT22;42237;53.340;6.812;2022-10-16T18:50:40;11.60;99.90
56332;DHT22;42237;53.340;6.812;2022-10-16T18:53:08;11.60;99.90
56332;DHT22;42237;53.340;6.812;2022-10-16T18:55:37;11.50;99.90
56332;DHT22;42237;53.340;6.812;2022-10-16T18:58:19;11.80;99.90
56332;DHT22;42237;53.340;6.812;2022-10-16T19:00:47;11.40;99.90
56332;DHT22;42237;53.340;6.812;2022-10-16T19:03:13;11.40;99.90
56332;DHT22;42237;53.340;6.812;2022-10-16T19:05:41;11.30;99.90
56332;DHT22;42237;53.340;6.812;2022-10-16T19:08:13;11.30;99.90
56332;DHT22;42237;53.340;6.812;2022-10-16T19:10:39;11.30;99.90
56332;DHT22;42237;53.340;6.812;2022-10-16T19:13:10;11.30;99.90
56332;DHT22;42237;53.340;6.812;2022-10-16T19:19:19;10.50;99.90
56332;DHT22;42237;53.340;6.812;2022-10-16T19:21:46;12.20;99.90
56332;DHT22;42237;53.340;6.812;2022-10-16T19:24:14;11.30;99.90
56332;DHT22;42237;53.340;6.812;2022-10-16T19:26:50;11.30;99.90
56332;DHT22;42237;53.340;6.812;2022-10-16T19:32:38;11.40;99.90
56332;DHT22;42237;53.340;6.812;2022-10-16T19:35:04;11.30;99.90
56332;DHT22;42237;53.340;6.812;2022-10-16T19:37:32;11.40;99.90
56332;DHT22;42237;53.340;6.812;2022-10-16T19:50:54;11.40;99.90
56332;DHT22;42237;53.340;6.812;2022-10-16T19:57:25;11.40;99.90
56332;DHT22;42237;53.340;6.812;2022-10-16T20:00:10;11.40;99.90
56332;DHT22;42237;53.340;6.812;2022-10-16T20:02:54;11.40;99.90
56332;DHT22;42237;53.340;6.812;2022-10-16T20:05:25;11.30;99.90
56332;DHT22;42237;53.340;6.812;2022-10-16T20:07:50;11.30;99.90
56332;DHT22;42237;53.340;6.812;2022-10-16T20:10:16;11.30;99.90
56332;DHT22;42237;53.340;6.812;2022-10-16T20:12:42;11.30;99.90
56332;DHT22;42237;53.340;6.812;2022-10-16T20:19:14;11.40;99.90
56332;DHT22;42237;53.340;6.812;2022-10-16T20:22:11;11.40;99.90
56332;DHT22;42237;53.340;6.812;2022-10-16T20:24:37;11.40;99.90
56332;DHT22;42237;53.340;6.812;2022-10-16T20:27:03;11.40;99.90
56332;DHT22;42237;53.340;6.812;2022-10-16T20:29:31;11.50;99.90
56332;DHT22;42237;53.340;6.812;2022-10-16T21:52:14;11.80;99.90
56332;DHT22;42237;53.340;6.812;2022-10-16T22:20:20;11.60;99.90
56332;DHT22;42237;53.340;6.812;2022-10-16T22:22:46;11.70;99.90
56332;DHT22;42237;53.340;6.812;2022-10-16T22:25:11;11.70;99.90
56332;DHT22;42237;53.340;6.812;2022-10-16T22:27:40;11.70;99.90
56332;DHT22;42237;53.340;6.812;2022-10-16T22:41:31;11.80;99.90
56332;DHT22;42237;53.340;6.812;2022-10-16T22:43:56;11.80;99.90
56332;DHT22;42237;53.340;6.812;2022-10-16T22:46:25;11.80;99.90
56332;DHT22;42237;53.340;6.812;2022-10-16T22:56:45;11.80;99.90
56332;DHT22;42237;53.340;6.812;2022-10-16T22:59:48;11.90;99.90
56332;DHT22;42237;53.340;6.812;2022-10-16T23:17:21;11.90;99.90
56332;DHT22;42237;53.340;6.812;2022-10-16T23:30:55;11.90;99.90
56332;DHT22;42237;53.340;6.812;2022-10-16T23:52:09;11.90;99.90
56332;DHT22;42237;53.340;6.812;2022-10-16T23:54:35;11.90;99.90
56332;DHT22;42237;53.340;6.812;2022-10-16T23:57:01;11.80;99.90
